Time;durP1;ratioP1;P1;durP2;ratioP2;P2;SDS_P1;SDS_P2;PMS_P1;PMS_P2;Temp;Humidity;BMP_temperature;BMP_pressure;BME280_temperature;BME280_humidity;BME280_pressure;Samples;Min_cycle;Max_cycle;Signal;HPM_P1;HPM_P2
2022/09/03 00:02:04;;;;;;;2.35;0.70;;;;;;;18.42;43.05;99863.66;5136179;27;20035;-68
2022/09/03 00:04:39;;;;;;;2.33;0.40;;;;;;;18.43;43.24;99873.38;5135949;27;20038;-65
2022/09/03 00:07:19;;;;;;;1.63;0.50;;;;;;;18.43;43.13;99872.56;5135414;27;20485;-64
2022/09/03 00:09:58;;;;;;;0.73;0.40;;;;;;;18.42;43.05;99869.00;5134275;27;20031;-69
2022/09/03 00:12:32;;;;;;;1.55;0.60;;;;;;;18.41;43.27;99880.72;5134181;27;20042;-65
2022/09/03 00:15:09;;;;;;;1.65;0.50;;;;;;;18.42;43.02;99885.09;5136062;27;20038;-66
2022/09/03 00:17:43;;;;;;;1.52;0.57;;;;;;;18.40;43.21;99894.31;5135191;27;20046;-67
2022/09/03 00:20:35;;;;;;;1.55;0.43;;;;;;;18.39;43.10;99892.63;5134367;27;20486;-65
2022/09/03 00:23:04;;;;;;;1.23;0.60;;;;;;;18.38;43.14;99894.44;5135566;27;20100;-67
2022/09/03 00:25:33;;;;;;;1.00;0.47;;;;;;;18.39;43.20;99901.47;5135557;27;20070;-65
2022/09/03 00:28:03;;;;;;;1.38;0.70;;;;;;;18.40;43.14;99894.31;5135761;27;20035;-65
2022/09/03 00:30:30;;;;;;;1.05;0.63;;;;;;;18.38;43.07;99898.97;5135750;27;20066;-67
2022/09/03 00:33:05;;;;;;;1.20;0.60;;;;;;;18.39;43.07;99903.34;5132649;27;20070;-67
2022/09/03 00:35:36;;;;;;;0.90;0.63;;;;;;;18.37;43.09;99913.38;5134921;27;20038;-63
2022/09/03 00:38:02;;;;;;;1.02;0.57;;;;;;;18.35;43.17;99912.69;5115252;28;20401;-66
2022/09/03 00:40:27;;;;;;;0.95;0.55;;;;;;;18.36;43.17;99909.00;5114905;28;20042;-64
2022/09/03 00:43:23;;;;;;;1.00;0.47;;;;;;;18.35;43.21;99912.69;5134236;27;20049;-65
2022/09/03 00:46:18;;;;;;;0.65;0.40;;;;;;;18.34;43.07;99916.38;5135502;27;20443;-66
2022/09/03 00:49:08;;;;;;;0.93;0.47;;;;;;;18.32;43.30;99916.53;5112214;27;20120;-63
2022/09/03 00:52:10;;;;;;;1.50;0.40;;;;;;;18.32;43.17;99924.59;5114463;28;20035;-64
2022/09/03 00:54:42;;;;;;;1.33;0.50;;;;;;;18.29;43.20;99920.41;5129650;27;20042;-65
2022/09/03 00:57:29;;;;;;;2.22;0.50;;;;;;;18.30;43.23;99927.44;5135260;27;20038;-64
2022/09/03 01:00:19;;;;;;;0.68;0.47;;;;;;;18.30;43.38;99930.13;5135156;27;20397;-64
2022/09/03 01:03:18;;;;;;;0.65;0.50;;;;;;;18.28;43.44;99932.13;5134735;27;20039;-68
2022/09/03 01:06:02;;;;;;;1.08;0.55;;;;;;;18.27;43.40;99935.78;5134648;27;20386;-65
2022/09/03 01:08:49;;;;;;;0.85;0.47;;;;;;;18.28;43.51;99934.78;5135054;27;20415;-65
2022/09/03 01:11:37;;;;;;;2.00;0.35;;;;;;;18.28;43.41;99932.13;5135302;27;20121;-62
2022/09/03 01:14:40;;;;;;;1.95;1.23;;;;;;;18.28;43.61;99925.91;5134171;27;20194;-65
2022/09/03 01:17:05;;;;;;;0.98;0.50;;;;;;;18.27;43.44;99932.25;5132304;27;20501;-67
2022/09/03 01:20:02;;;;;;;1.00;0.70;;;;;;;18.26;43.52;99934.09;5134438;27;20115;-65
2022/09/03 01:23:05;;;;;;;0.82;0.40;;;;;;;18.25;43.47;99931.56;5133876;27;20565;-67
2022/09/03 01:25:56;;;;;;;0.75;0.45;;;;;;;18.25;43.62;99937.78;5134751;27;20027;-63
2022/09/03 01:28:32;;;;;;;0.77;0.50;;;;;;;18.24;43.51;99930.75;5131802;27;20070;-64
2022/09/03 01:31:39;;;;;;;1.45;0.52;;;;;;;18.25;43.61;99932.44;5133977;27;20279;-66
2022/09/03 01:34:28;;;;;;;3.13;0.50;;;;;;;18.24;43.77;99932.56;5134581;27;20034;-69
2022/09/03 01:37:12;;;;;;;0.93;0.47;;;;;;;18.23;43.79;99942.47;5133956;27;20546;-68
2022/09/03 01:40:02;;;;;;;1.48;0.77;;;;;;;18.23;43.96;99944.31;5134142;27;20091;-66
2022/09/03 01:42:47;;;;;;;0.88;0.63;;;;;;;18.26;44.04;99957.34;5133993;27;20121;-70
2022/09/03 01:45:31;;;;;;;1.08;0.40;;;;;;;18.24;44.22;99944.13;5133771;27;20037;-67
2022/09/03 01:48:19;;;;;;;1.38;0.60;;;;;;;18.25;44.27;99953.84;5133881;27;20117;-66
2022/09/03 01:50:56;;;;;;;2.28;0.68;;;;;;;18.26;44.54;99954.69;5133491;27;20035;-67
2022/09/03 01:53:51;;;;;;;1.50;0.47;;;;;;;18.26;44.31;99966.25;5133903;27;20035;-65
2022/09/03 01:56:58;;;;;;;1.80;0.70;;;;;;;18.24;44.15;99962.88;5134104;27;20435;-68
2022/09/03 01:59:41;;;;;;;0.57;0.43;;;;;;;18.22;44.19;99964.88;5131871;27;20126;-63
2022/09/03 02:02:24;;;;;;;3.58;0.70;;;;;;;18.21;44.14;99971.25;5132722;27;20126;-64
2022/09/03 02:05:07;;;;;;;1.08;0.60;;;;;;;18.22;44.21;99969.41;5133482;27;20094;-67
2022/09/03 02:07:43;;;;;;;1.67;0.65;;;;;;;18.20;44.31;99972.22;5131990;27;20046;-65
2022/09/03 02:10:24;;;;;;;0.75;0.32;;;;;;;18.20;43.94;99977.59;5133708;27;20142;-70
2022/09/03 02:12:56;;;;;;;23.43;1.10;;;;;;;18.20;44.10;99976.75;5142331;27;20123;-68
2022/09/03 02:15:24;;;;;;;4.80;0.70;;;;;;;18.19;44.12;99978.59;5133892;27;20298;-68
2022/09/03 02:17:55;;;;;;;0.80;0.57;;;;;;;18.17;44.13;99988.63;5132570;27;20111;-67
2022/09/03 02:20:23;;;;;;;1.00;0.47;;;;;;;18.17;44.06;99985.94;5131549;28;20055;-68
2022/09/03 02:22:49;;;;;;;1.13;0.50;;;;;;;18.18;44.01;99994.84;5133044;27;20134;-65
2022/09/03 02:25:16;;;;;;;1.13;0.60;;;;;;;18.17;44.05;99993.16;5133721;27;20034;-68
2022/09/03 02:27:42;;;;;;;0.60;0.52;;;;;;;18.18;43.97;99990.31;5132625;27;20122;-68
2022/09/03 02:30:09;;;;;;;1.27;0.60;;;;;;;18.17;43.91;99987.78;5133085;27;20042;-65
2022/09/03 02:32:35;;;;;;;6.40;0.70;;;;;;;18.16;44.03;99986.94;5132863;27;20038;-70
2022/09/03 02:35:00;;;;;;;1.10;0.82;;;;;;;18.15;43.89;99988.78;5133748;28;20026;-66
2022/09/03 02:37:26;;;;;;;1.27;0.60;;;;;;;18.14;43.83;99991.63;5132042;27;20477;-64
2022/09/03 02:39:51;;;;;;;1.08;0.65;;;;;;;18.14;44.02;99988.97;5133182;28;20042;-68
2022/09/03 02:42:18;;;;;;;0.57;0.43;;;;;;;18.14;44.05;99994.31;5131254;27;20042;-69
2022/09/03 02:44:49;;;;;;;0.68;0.57;;;;;;;18.12;43.90;99986.41;5131302;27;20631;-69
2022/09/03 02:47:14;;;;;;;1.73;0.70;;;;;;;18.12;43.80;99997.13;5132942;27;20039;-68
2022/09/03 02:49:40;;;;;;;1.02;0.40;;;;;;;18.12;44.05;100002.50;5133392;28;20035;-68
2022/09/03 02:52:08;;;;;;;3.33;0.50;;;;;;;18.13;43.98;100009.53;5140376;27;20045;-66
2022/09/03 02:54:38;;;;;;;1.48;0.35;;;;;;;18.14;44.07;100002.34;5154002;27;20038;-68
2022/09/03 02:57:08;;;;;;;1.00;0.45;;;;;;;18.15;43.87;100002.19;5157068;27;20037;-70
2022/09/03 02:59:34;;;;;;;1.23;0.73;;;;;;;18.14;43.96;99997.81;5143918;27;20046;-69
2022/09/03 03:01:59;;;;;;;1.42;0.50;;;;;;;18.13;44.17;100000.66;5136405;27;20034;-68
2022/09/03 03:04:25;;;;;;;1.15;0.40;;;;;;;18.14;44.03;100016.56;5136951;27;20034;-67
2022/09/03 03:06:50;;;;;;;0.63;0.52;;;;;;;18.15;44.21;100017.41;5136668;27;20043;-66
2022/09/03 03:09:17;;;;;;;0.82;0.60;;;;;;;18.13;43.97;100011.38;5135008;27;20076;-67
2022/09/03 03:11:42;;;;;;;0.98;0.50;;;;;;;18.15;44.02;100022.78;5137052;27;20043;-67
2022/09/03 03:14:07;;;;;;;1.40;0.70;;;;;;;18.14;44.09;100019.25;5136105;27;20070;-65
2022/09/03 03:16:33;;;;;;;1.00;0.75;;;;;;;18.15;44.12;100023.59;5139082;27;20405;-70
2022/09/03 03:18:59;;;;;;;1.13;0.60;;;;;;;18.14;44.11;100016.56;5136503;27;20031;-69
2022/09/03 03:21:25;;;;;;;1.98;0.70;;;;;;;18.15;44.06;100018.25;5136692;27;20145;-66
2022/09/03 03:23:50;;;;;;;1.45;0.82;;;;;;;18.17;43.99;100019.94;5134230;27;20030;-66
2022/09/03 03:26:18;;;;;;;1.23;0.57;;;;;;;18.16;44.15;100019.06;5116177;28;20119;-68
2022/09/03 03:28:45;;;;;;;0.90;0.60;;;;;;;18.18;43.93;100021.63;5127105;27;20038;-69
2022/09/03 03:31:19;;;;;;;0.90;0.65;;;;;;;18.20;44.49;100027.66;5135659;27;20031;-65
2022/09/03 03:33:58;;;;;;;1.02;0.70;;;;;;;18.20;44.48;100025.81;5136900;27;20396;-68
2022/09/03 03:36:27;;;;;;;1.13;0.70;;;;;;;18.21;44.39;100027.47;5136828;27;20446;-65
2022/09/03 03:38:55;;;;;;;2.05;0.68;;;;;;;18.22;44.31;100031.84;5141881;27;20408;-65
2022/09/03 03:41:24;;;;;;;3.33;1.00;;;;;;;18.23;44.47;100030.84;5135772;27;20082;-68
2022/09/03 03:43:54;;;;;;;2.03;1.15;;;;;;;18.24;44.43;100048.59;5136172;27;20148;-69
2022/09/03 03:46:21;;;;;;;2.30;0.60;;;;;;;18.24;44.31;100043.25;5136235;27;20088;-67
2022/09/03 03:48:47;;;;;;;8.52;0.73;;;;;;;18.26;44.40;100041.25;5136573;27;20027;-68
2022/09/03 03:51:13;;;;;;;1.55;0.90;;;;;;;18.28;44.23;100043.75;5136337;27;20067;-70
2022/09/03 03:53:39;;;;;;;1.80;0.73;;;;;;;18.29;44.35;100038.25;5136401;27;20063;-69
2022/09/03 03:56:08;;;;;;;1.88;0.60;;;;;;;18.30;44.27;100041.75;5133289;27;20490;-67
2022/09/03 03:58:34;;;;;;;1.75;0.85;;;;;;;18.30;44.20;100028.38;5135453;27;20114;-68
2022/09/03 04:01:08;;;;;;;2.28;1.13;;;;;;;18.30;44.19;100041.75;5135673;27;20039;-66
2022/09/03 04:03:34;;;;;;;1.10;0.55;;;;;;;18.29;44.15;100040.94;5135200;27;20047;-66
2022/09/03 04:06:01;;;;;;;0.95;0.52;;;;;;;18.32;44.03;100049.63;5135508;27;20952;-64
2022/09/03 04:08:28;;;;;;;4.22;0.88;;;;;;;18.32;44.07;100046.94;5134889;27;20038;-64
2022/09/03 04:10:57;;;;;;;1.40;0.80;;;;;;;18.32;44.01;100053.16;5128997;27;20035;-67
2022/09/03 04:13:23;;;;;;;1.50;0.90;;;;;;;18.33;43.89;100054.84;5145330;27;20080;-68
2022/09/03 04:15:48;;;;;;;2.67;0.68;;;;;;;18.34;44.09;100051.16;5135912;27;20038;-66
2022/09/03 04:18:14;;;;;;;1.65;0.85;;;;;;;18.35;43.92;100060.03;5135184;27;20504;-70
2022/09/03 04:20:39;;;;;;;2.40;0.70;;;;;;;18.36;43.87;100054.53;5135207;27;20055;-68
2022/09/03 04:23:05;;;;;;;1.38;0.73;;;;;;;18.38;43.96;100060.56;5135975;27;20500;-67
2022/09/03 04:25:31;;;;;;;1.60;0.70;;;;;;;18.39;43.96;100058.72;5135286;27;20027;-67
2022/09/03 04:27:56;;;;;;;2.63;0.77;;;;;;;18.40;43.76;100057.72;5156653;27;20030;-65
2022/09/03 04:30:22;;;;;;;3.92;1.10;;;;;;;18.40;43.85;100066.59;5156349;27;20057;-63
2022/09/03 04:32:54;;;;;;;1.30;0.70;;;;;;;18.40;43.73;100063.09;5137978;27;20046;-67
2022/09/03 04:35:22;;;;;;;1.02;0.63;;;;;;;18.40;43.76;100063.09;5135401;27;20042;-67
2022/09/03 04:37:53;;;;;;;1.75;0.75;;;;;;;18.43;43.67;100060.09;5134293;27;20367;-66
2022/09/03 04:40:19;;;;;;;1.35;0.68;;;;;;;18.45;43.83;100064.28;5135190;27;20125;-68
2022/09/03 04:42:45;;;;;;;1.27;0.70;;;;;;;18.45;43.82;100069.66;5132873;27;20430;-64
2022/09/03 04:45:11;;;;;;;1.60;0.63;;;;;;;18.47;43.56;100074.00;5135534;27;20043;-67
2022/09/03 04:47:37;;;;;;;1.20;0.68;;;;;;;18.48;43.60;100070.31;5135458;27;20143;-64
2022/09/03 04:50:04;;;;;;;1.67;0.73;;;;;;;18.50;43.85;100071.84;5135422;27;20440;-66
2022/09/03 04:52:30;;;;;;;2.42;0.77;;;;;;;18.51;43.40;100070.84;5134509;27;20033;-64
2022/09/03 04:54:56;;;;;;;4.07;1.17;;;;;;;18.57;43.30;100064.00;5151616;27;20074;-68
2022/09/03 04:57:23;;;;;;;1.77;0.60;;;;;;;18.57;43.54;100067.53;5140347;27;20026;-66
2022/09/03 04:59:48;;;;;;;0.98;0.57;;;;;;;18.56;43.21;100067.69;5133265;27;20125;-66
2022/09/03 05:02:14;;;;;;;2.03;0.90;;;;;;;18.56;43.41;100070.34;5134541;27;20110;-63
2022/09/03 05:04:42;;;;;;;1.92;0.80;;;;;;;18.57;43.29;100070.22;5134922;27;20049;-67
2022/09/03 05:07:08;;;;;;;1.30;0.93;;;;;;;18.58;43.10;100069.22;5134202;27;21770;-67
2022/09/03 05:09:34;;;;;;;1.45;0.82;;;;;;;18.64;42.62;100078.47;5134227;27;20038;-67
2022/09/03 05:11:59;;;;;;;2.28;1.00;;;;;;;18.81;41.75;100076.69;5144248;27;20031;-67
2022/09/03 05:14:25;;;;;;;1.55;1.15;;;;;;;19.24;40.51;100082.06;5136116;27;20397;-67
2022/09/03 05:16:50;;;;;;;1.58;1.00;;;;;;;19.73;39.41;100083.94;5140388;27;20042;-64
2022/09/03 05:19:16;;;;;;;1.75;1.30;;;;;;;19.98;38.89;100089.34;5133352;27;20031;-66
2022/09/03 05:21:42;;;;;;;1.63;1.00;;;;;;;20.25;38.53;100084.59;5138982;27;20536;-64
2022/09/03 05:24:08;;;;;;;1.90;0.95;;;;;;;20.54;38.14;100075.97;5138371;27;20035;-69
2022/09/03 05:26:38;;;;;;;1.70;1.10;;;;;;;20.70;37.84;100088.50;5133881;27;20413;-68
2022/09/03 05:29:07;;;;;;;2.47;0.90;;;;;;;20.80;37.69;100091.03;5134644;27;20031;-67
2022/09/03 05:31:37;;;;;;;1.35;0.70;;;;;;;20.80;37.97;100099.09;5133345;27;20039;-67
2022/09/03 05:34:04;;;;;;;1.38;0.82;;;;;;;20.87;37.84;100096.56;5133755;27;20034;-66
2022/09/03 05:36:33;;;;;;;0.68;0.57;;;;;;;20.96;37.89;100095.50;5133703;27;20424;-65
2022/09/03 05:38:59;;;;;;;2.03;0.82;;;;;;;20.97;37.88;100097.16;5133997;27;20407;-67
2022/09/03 05:41:25;;;;;;;3.65;0.82;;;;;;;20.86;38.25;100093.03;5141335;27;20047;-66
2022/09/03 05:43:57;;;;;;;0.77;0.65;;;;;;;20.70;38.52;100103.81;5134610;27;20031;-67
2022/09/03 05:46:30;;;;;;;2.97;0.80;;;;;;;20.39;39.40;100110.78;5131916;27;20430;-68
2022/09/03 05:49:00;;;;;;;1.60;1.00;;;;;;;20.17;39.56;100114.19;5134171;27;20102;-66
2022/09/03 05:51:27;;;;;;;0.73;0.50;;;;;;;20.02;40.21;100109.50;5115099;27;20496;-65
2022/09/03 05:53:54;;;;;;;0.75;0.60;;;;;;;19.95;40.20;100111.16;5134077;27;20039;-67
2022/09/03 05:56:22;;;;;;;0.95;0.85;;;;;;;19.89;40.30;100106.47;5137304;27;20026;-70
2022/09/03 05:58:50;;;;;;;1.30;0.80;;;;;;;19.83;40.66;100114.16;5154662;27;20504;-65
2022/09/03 06:01:16;;;;;;;1.20;0.60;;;;;;;19.77;40.61;100112.16;5154258;27;20034;-65
2022/09/03 06:03:44;;;;;;;1.50;0.85;;;;;;;19.75;40.72;100111.47;5141864;27;20042;-67
2022/09/03 06:06:09;;;;;;;1.15;0.80;;;;;;;19.71;40.94;100117.31;5131080;27;20065;-66
2022/09/03 06:08:40;;;;;;;1.02;0.60;;;;;;;19.69;41.12;100114.81;5134261;27;20062;-68
2022/09/03 06:11:07;;;;;;;3.42;0.60;;;;;;;19.67;40.88;100112.31;5132950;27;20213;-66
2022/09/03 06:13:33;;;;;;;1.30;0.52;;;;;;;19.66;41.25;100115.16;5133197;27;20122;-66
2022/09/03 06:16:04;;;;;;;1.40;0.55;;;;;;;19.65;41.10;100113.47;5132221;27;20030;-65
2022/09/03 06:18:30;;;;;;;4.57;0.73;;;;;;;19.62;41.17;100120.00;5152233;27;20102;-69
2022/09/03 06:21:04;;;;;;;2.30;0.70;;;;;;;19.61;41.26;100117.50;5153863;27;20137;-66
2022/09/03 06:23:31;;;;;;;4.72;0.95;;;;;;;19.60;41.23;100115.81;5136091;27;20039;-70
2022/09/03 06:26:03;;;;;;;0.93;0.65;;;;;;;19.59;41.31;100116.81;5130444;27;20031;-63
2022/09/03 06:28:30;;;;;;;1.35;0.82;;;;;;;19.58;41.35;100123.19;5138625;27;20035;-66
2022/09/03 06:31:01;;;;;;;2.90;1.00;;;;;;;19.59;41.23;100123.03;5133322;27;20050;-69
2022/09/03 06:33:30;;;;;;;1.43;0.80;;;;;;;19.59;41.32;100124.88;5133503;28;20061;-67
2022/09/03 06:35:58;;;;;;;1.23;0.52;;;;;;;19.59;41.40;100119.50;5134030;27;20039;-69
2022/09/03 06:38:26;;;;;;;1.00;0.70;;;;;;;19.60;41.64;100131.94;5133026;27;20517;-66
2022/09/03 06:40:56;;;;;;;1.48;0.50;;;;;;;19.59;41.71;100125.69;5123018;27;20084;-67
2022/09/03 06:43:22;;;;;;;1.65;0.63;;;;;;;19.61;41.63;100125.56;5113365;28;20063;-69
2022/09/03 06:45:56;;;;;;;2.92;0.73;;;;;;;19.62;42.02;100124.56;5113002;28;20046;-69
2022/09/03 06:48:22;;;;;;;1.85;0.55;;;;;;;19.62;42.03;100130.75;5113051;28;20110;-71
2022/09/03 06:51:08;;;;;;;1.23;0.55;;;;;;;19.62;41.83;100128.06;5119003;27;20127;-70
2022/09/03 06:53:36;;;;;;;1.20;0.60;;;;;;;19.60;42.07;100127.38;5133514;28;20027;-69
2022/09/03 06:56:05;;;;;;;1.45;0.60;;;;;;;19.61;41.89;100125.56;5114617;28;20027;-69
2022/09/03 06:58:36;;;;;;;1.17;0.40;;;;;;;19.61;41.76;100128.25;5132524;27;20422;-69
2022/09/03 07:01:07;;;;;;;0.98;0.52;;;;;;;19.60;41.98;100134.63;5131720;27;20035;-67
2022/09/03 07:03:33;;;;;;;1.38;0.52;;;;;;;19.61;41.94;100128.25;5133813;28;20142;-68
2022/09/03 07:06:03;;;;;;;1.30;0.43;;;;;;;19.61;41.93;100137.13;5132893;27;20041;-69
2022/09/03 07:08:31;;;;;;;1.65;0.60;;;;;;;19.61;41.71;100137.13;5133041;28;20039;-70
2022/09/03 07:10:59;;;;;;;1.90;0.50;;;;;;;19.63;41.64;100139.66;5133176;27;20092;-65
2022/09/03 07:13:25;;;;;;;0.80;0.38;;;;;;;19.62;41.64;100132.59;5132897;28;20034;-66
2022/09/03 07:16:06;;;;;;;0.60;0.40;;;;;;;19.62;41.59;100135.28;5105829;28;20076;-68
2022/09/03 07:18:32;;;;;;;0.80;0.50;;;;;;;19.62;41.39;100149.53;5132260;28;20035;-68
2022/09/03 07:21:03;;;;;;;1.60;0.60;;;;;;;19.61;40.99;100139.81;5132649;27;20055;-66
2022/09/03 07:23:30;;;;;;;2.17;0.60;;;;;;;19.60;41.34;100135.44;5132789;28;20514;-69
2022/09/03 07:25:58;;;;;;;1.70;0.63;;;;;;;19.62;41.46;100129.94;5132826;27;20126;-68
2022/09/03 07:28:24;;;;;;;1.58;0.57;;;;;;;19.63;41.35;100139.66;5132469;27;20039;-69
2022/09/03 07:30:51;;;;;;;0.80;0.60;;;;;;;19.63;41.31;100137.81;5133049;27;20027;-66
2022/09/03 07:33:17;;;;;;;0.73;0.50;;;;;;;19.64;41.32;100135.94;5133207;28;20027;-70
2022/09/03 07:35:44;;;;;;;0.80;0.40;;;;;;;19.65;41.36;100145.69;5132456;27;20037;-65
2022/09/03 07:38:10;;;;;;;3.85;0.50;;;;;;;19.63;41.31;100145.84;5132698;28;20023;-67
2022/09/03 07:40:38;;;;;;;1.20;0.40;;;;;;;19.64;41.68;100139.47;5132266;27;20035;-68
2022/09/03 07:43:04;;;;;;;1.20;0.40;;;;;;;19.69;41.56;100143.53;5134352;27;20049;-66
2022/09/03 07:45:32;;;;;;;1.55;0.63;;;;;;;19.69;41.58;100148.91;5136567;27;20023;-65
2022/09/03 07:47:58;;;;;;;0.65;0.40;;;;;;;19.70;41.59;100146.03;5134338;27;20042;-67
2022/09/03 07:50:23;;;;;;;0.60;0.40;;;;;;;19.69;41.54;100147.03;5135257;27;20031;-65
2022/09/03 07:52:54;;;;;;;1.27;0.57;;;;;;;19.71;41.61;100146.84;5136957;27;20550;-67
2022/09/03 07:55:20;;;;;;;2.13;0.60;;;;;;;19.73;41.61;100150.22;5136280;27;20031;-70
2022/09/03 07:57:45;;;;;;;0.80;0.35;;;;;;;19.73;41.71;100142.16;5134797;27;20035;-67
2022/09/03 08:00:11;;;;;;;0.52;0.38;;;;;;;19.72;41.59;100141.34;5136423;27;20035;-66
2022/09/03 08:02:37;;;;;;;0.75;0.50;;;;;;;19.72;41.61;100138.66;5135555;27;20045;-69
2022/09/03 08:05:03;;;;;;;1.38;0.38;;;;;;;19.74;41.87;100135.78;5135804;27;20130;-67
2022/09/03 08:07:29;;;;;;;0.47;0.38;;;;;;;19.74;41.93;100135.78;5136484;27;20470;-66
2022/09/03 08:09:55;;;;;;;0.50;0.30;;;;;;;19.74;41.72;100135.78;5136325;27;20027;-66
2022/09/03 08:12:20;;;;;;;0.50;0.40;;;;;;;19.77;41.65;100140.84;5132880;27;20031;-66
2022/09/03 08:14:46;;;;;;;0.73;0.52;;;;;;;19.77;41.43;100138.16;5148555;27;20125;-68
2022/09/03 08:17:12;;;;;;;0.77;0.55;;;;;;;19.76;41.19;100144.53;5156747;27;20034;-66
2022/09/03 08:19:39;;;;;;;0.73;0.40;;;;;;;19.73;41.24;100137.66;5156313;27;20412;-68
2022/09/03 08:22:05;;;;;;;0.35;0.20;;;;;;;19.74;41.63;100141.16;5150013;27;20048;-66
2022/09/03 08:24:32;;;;;;;0.65;0.43;;;;;;;19.73;41.57;100134.97;5136269;27;20027;-68
2022/09/03 08:26:57;;;;;;;1.55;0.52;;;;;;;19.73;41.60;100129.59;5143394;27;20118;-70
2022/09/03 08:29:23;;;;;;;1.23;0.50;;;;;;;19.74;41.79;100133.97;5156704;27;20117;-67
2022/09/03 08:31:48;;;;;;;1.75;0.77;;;;;;;19.75;41.80;100130.28;5152035;27;20031;-66
2022/09/03 08:34:16;;;;;;;3.35;1.05;;;;;;;19.73;42.01;100139.47;5135845;27;20473;-67
2022/09/03 08:36:41;;;;;;;3.33;1.55;;;;;;;19.73;42.07;100124.22;5135320;27;20478;-66
2022/09/03 08:39:09;;;;;;;3.83;2.05;;;;;;;19.76;42.04;100133.78;5135505;27;20027;-68
2022/09/03 08:41:49;;;;;;;3.92;1.30;;;;;;;19.76;42.15;100128.41;5135539;27;20035;-68
2022/09/03 08:44:18;;;;;;;4.43;1.92;;;;;;;19.76;42.26;100129.28;5133571;27;20557;-65
2022/09/03 08:46:52;;;;;;;4.22;1.60;;;;;;;19.79;42.29;100136.97;5134998;27;20050;-68
2022/09/03 08:49:25;;;;;;;3.28;1.67;;;;;;;19.80;42.47;100130.59;5135620;27;20027;-68
2022/09/03 08:51:54;;;;;;;2.47;1.27;;;;;;;19.83;42.54;100122.22;5135363;27;20516;-66
2022/09/03 08:54:24;;;;;;;5.95;1.50;;;;;;;19.85;42.56;100119.38;5114448;28;20035;-65
2022/09/03 08:56:49;;;;;;;3.58;1.30;;;;;;;19.88;42.31;100128.97;5114846;28;20042;-67
2022/09/03 08:59:15;;;;;;;2.90;1.40;;;;;;;19.89;42.34;100126.09;5123759;27;20519;-68
2022/09/03 09:02:08;;;;;;;2.55;1.45;;;;;;;19.92;42.40;100127.63;5134978;27;20046;-67
2022/09/03 09:04:55;;;;;;;3.97;1.10;;;;;;;19.92;41.88;100130.31;5135484;27;20431;-67
2022/09/03 09:07:25;;;;;;;3.72;1.60;;;;;;;19.94;41.74;100133.66;5133845;27;20038;-67
2022/09/03 09:10:07;;;;;;;2.70;1.10;;;;;;;19.95;41.74;100138.00;5133644;27;20033;-65
2022/09/03 09:13:16;;;;;;;6.63;1.52;;;;;;;19.95;42.08;100130.81;5134598;27;20027;-68
2022/09/03 09:15:55;;;;;;;2.50;1.13;;;;;;;19.96;41.72;100118.22;5085663;27;20039;-64
2022/09/03 09:18:26;;;;;;;2.90;0.98;;;;;;;19.97;41.78;100122.56;5120954;27;20042;-67
2022/09/03 09:21:02;;;;;;;5.13;1.48;;;;;;;19.97;41.75;100122.56;5133414;27;20413;-66
2022/09/03 09:23:36;;;;;;;2.38;0.90;;;;;;;19.97;41.67;100119.91;5114179;28;20538;-68
2022/09/03 09:26:09;;;;;;;2.05;1.00;;;;;;;19.96;41.54;100118.22;5113726;28;20071;-64
2022/09/03 09:28:37;;;;;;;3.90;1.73;;;;;;;19.93;41.83;100116.72;5127134;27;20042;-66
2022/09/03 09:31:06;;;;;;;3.55;1.70;;;;;;;19.94;42.09;100115.69;5130931;27;20458;-68
2022/09/03 09:33:32;;;;;;;2.00;1.23;;;;;;;19.94;42.24;100113.03;5133861;27;20046;-68
2022/09/03 09:36:07;;;;;;;2.88;1.05;;;;;;;19.93;41.86;100123.91;5134427;27;20057;-68
2022/09/03 09:38:37;;;;;;;3.17;1.10;;;;;;;19.90;41.57;100124.28;5133834;27;20041;-69
2022/09/03 09:41:32;;;;;;;1.52;0.80;;;;;;;19.88;41.50;100127.09;5134574;27;20115;-66
2022/09/03 09:44:04;;;;;;;1.27;0.77;;;;;;;19.86;41.32;100118.34;5118796;27;20512;-67
2022/09/03 09:46:36;;;;;;;2.42;0.95;;;;;;;19.86;41.42;100112.16;5131593;27;20027;-67
2022/09/03 09:49:02;;;;;;;2.25;1.08;;;;;;;19.85;41.81;100121.22;5140183;27;20029;-64
2022/09/03 09:51:30;;;;;;;3.03;0.90;;;;;;;19.86;41.66;100120.19;5132492;27;20030;-68
2022/09/03 09:54:09;;;;;;;12.52;1.00;;;;;;;19.87;41.30;100112.00;5132533;27;20023;-67
2022/09/03 09:56:35;;;;;;;4.63;0.98;;;;;;;19.88;41.23;100112.84;5131820;27;20045;-63
2022/09/03 09:59:09;;;;;;;1.77;0.85;;;;;;;19.90;40.88;100114.34;5130729;27;20027;-65
2022/09/03 10:01:40;;;;;;;1.50;0.98;;;;;;;19.90;41.12;100102.78;5130966;27;20516;-69
2022/09/03 10:04:12;;;;;;;1.45;0.80;;;;;;;19.92;41.15;100106.16;5134101;27;20030;-66
2022/09/03 10:06:54;;;;;;;2.55;0.75;;;;;;;19.93;41.07;100108.66;5132544;27;20091;-67
2022/09/03 10:09:24;;;;;;;1.92;1.20;;;;;;;19.96;40.56;100107.47;5132638;27;20481;-69
2022/09/03 10:11:57;;;;;;;2.20;0.50;;;;;;;19.94;40.86;100104.97;5131784;27;20035;-64
2022/09/03 10:14:33;;;;;;;1.92;0.70;;;;;;;19.96;40.49;100102.09;5133624;27;20563;-68
2022/09/03 10:17:46;;;;;;;2.90;0.70;;;;;;;19.97;40.45;100104.63;5110203;28;20398;-69
2022/09/03 10:20:32;;;;;;;1.63;0.80;;;;;;;19.98;40.63;100100.09;5076329;28;20138;-64
2022/09/03 10:23:03;;;;;;;2.80;0.77;;;;;;;20.00;40.30;100106.13;5130073;27;20039;-69
2022/09/03 10:26:10;;;;;;;1.52;0.63;;;;;;;20.02;39.92;100106.81;5133510;27;20068;-66
2022/09/03 10:28:41;;;;;;;1.58;0.85;;;;;;;20.01;39.57;100105.13;5133730;27;20027;-65
2022/09/03 10:31:30;;;;;;;1.45;0.65;;;;;;;20.04;39.45;100112.84;5133673;27;20034;-69
2022/09/03 10:34:32;;;;;;;2.17;1.08;;;;;;;20.04;39.87;100106.63;5132804;28;20523;-69
2022/09/03 10:37:24;;;;;;;5.75;1.30;;;;;;;20.05;39.50;100116.38;5131193;27;20031;-65
2022/09/03 10:40:08;;;;;;;1.52;0.80;;;;;;;20.04;39.24;100112.84;5133077;27;20062;-66
2022/09/03 10:43:03;;;;;;;4.95;1.55;;;;;;;20.06;39.99;100116.22;5122091;27;20038;-66
2022/09/03 10:45:45;;;;;;;5.20;2.05;;;;;;;20.09;40.27;100125.78;5124470;27;20041;-67
2022/09/03 10:48:23;;;;;;;4.68;1.55;;;;;;;20.11;40.42;100110.34;5133067;27;20037;-66
2022/09/03 10:50:58;;;;;;;2.70;1.17;;;;;;;20.13;39.89;100121.75;5132594;27;20039;-63
2022/09/03 10:53:49;;;;;;;3.78;1.30;;;;;;;20.15;39.51;100126.94;5132166;27;20485;-66
2022/09/03 10:57:00;;;;;;;3.83;1.52;;;;;;;20.14;39.83;100126.13;5132222;27;20042;-64
2022/09/03 11:00:09;;;;;;;7.45;1.42;;;;;;;20.11;39.70;100132.66;5093974;28;20410;-65
2022/09/03 11:03:11;;;;;;;4.00;1.60;;;;;;;20.12;39.24;100123.59;5043294;28;20410;-66
2022/09/03 11:05:44;;;;;;;2.28;0.98;;;;;;;20.16;39.29;100113.31;5049568;28;20029;-67
2022/09/03 11:08:27;;;;;;;2.47;0.80;;;;;;;20.19;39.29;100113.00;5113188;27;20077;-67
2022/09/03 11:11:01;;;;;;;6.88;1.73;;;;;;;20.21;39.79;100132.47;5132043;27;20152;-71
2022/09/03 11:13:34;;;;;;;2.80;0.85;;;;;;;20.21;39.49;100121.72;5132408;27;20027;-69
2022/09/03 11:16:11;;;;;;;5.93;1.05;;;;;;;20.22;40.05;100118.03;5132958;27;20023;-68
2022/09/03 11:18:48;;;;;;;3.22;1.08;;;;;;;20.21;40.19;100112.84;5132761;27;20042;-68
2022/09/03 11:21:18;;;;;;;2.47;1.00;;;;;;;20.20;40.02;100111.16;5135273;27;20051;-67
2022/09/03 11:23:46;;;;;;;4.68;1.20;;;;;;;20.17;39.89;100109.63;5137154;27;20101;-69
2022/09/03 11:26:16;;;;;;;4.10;1.00;;;;;;;20.17;40.01;100111.50;5137036;27;20039;-69
2022/09/03 11:28:54;;;;;;;3.00;1.10;;;;;;;20.15;39.88;100111.66;5137707;27;20054;-65
2022/09/03 11:31:35;;;;;;;2.13;1.02;;;;;;;20.16;40.18;100109.81;5136525;27;20382;-66
2022/09/03 11:34:25;;;;;;;3.33;1.15;;;;;;;20.15;40.25;100113.50;5117538;27;20039;-68
2022/09/03 11:37:03;;;;;;;5.93;1.70;;;;;;;20.14;40.46;100104.63;5134556;27;20039;-69
2022/09/03 11:39:31;;;;;;;3.60;1.17;;;;;;;20.17;40.65;100095.38;5135842;27;20031;-67
2022/09/03 11:42:07;;;;;;;5.68;1.85;;;;;;;20.17;40.68;100087.31;5135068;27;20069;-68
2022/09/03 11:44:38;;;;;;;5.15;0.85;;;;;;;20.19;40.33;100083.44;5135995;27;20062;-66
2022/09/03 11:47:22;;;;;;;4.10;1.70;;;;;;;20.22;40.55;100075.03;5128670;27;20139;-65
2022/09/03 11:49:51;;;;;;;2.70;0.90;;;;;;;20.24;40.31;100082.91;5115293;27;20106;-68
2022/09/03 11:52:31;;;;;;;3.45;1.17;;;;;;;20.25;40.45;100074.72;5131868;27;20039;-65
2022/09/03 11:54:56;;;;;;;2.45;1.02;;;;;;;20.24;40.04;100081.09;5135941;27;20030;-67